sensor_id;sensor_type;location;lat;lon;timestamp;P1;durP1;ratioP1;P2;durP2;ratioP2
12776;SDS011;6452;41.572;23.732;2023-11-19T00:01:08;3.30;;;2.60;;
12776;SDS011;6452;41.572;23.732;2023-11-19T00:03:54;3.63;;;3.03;;
12776;SDS011;6452;41.572;23.732;2023-11-19T00:06:20;8.75;;;4.50;;
12776;SDS011;6452;41.572;23.732;2023-11-19T00:08:46;6.63;;;4.13;;
12776;SDS011;6452;41.572;23.732;2023-11-19T00:11:13;5.15;;;3.45;;
12776;SDS011;6452;41.572;23.732;2023-11-19T00:13:41;4.53;;;3.00;;
12776;SDS011;6452;41.572;23.732;2023-11-19T00:16:07;3.10;;;2.80;;
12776;SDS011;6452;41.572;23.732;2023-11-19T00:18:35;2.35;;;2.20;;
12776;SDS011;6452;41.572;23.732;2023-11-19T00:21:05;5.45;;;3.75;;
12776;SDS011;6452;41.572;23.732;2023-11-19T00:23:33;8.80;;;4.43;;
12776;SDS011;6452;41.572;23.732;2023-11-19T00:25:59;8.02;;;4.85;;
12776;SDS011;6452;41.572;23.732;2023-11-19T00:28:26;3.50;;;3.20;;
12776;SDS011;6452;41.572;23.732;2023-11-19T00:30:52;5.50;;;2.60;;
12776;SDS011;6452;41.572;23.732;2023-11-19T00:33:19;2.17;;;2.08;;
12776;SDS011;6452;41.572;23.732;2023-11-19T00:35:45;1.88;;;1.77;;
12776;SDS011;6452;41.572;23.732;2023-11-19T00:38:11;1.67;;;1.58;;
12776;SDS011;6452;41.572;23.732;2023-11-19T00:40:38;4.07;;;1.90;;
12776;SDS011;6452;41.572;23.732;2023-11-19T00:43:04;1.90;;;1.80;;
12776;SDS011;6452;41.572;23.732;2023-11-19T00:45:30;2.00;;;1.90;;
12776;SDS011;6452;41.572;23.732;2023-11-19T00:47:57;2.10;;;2.00;;
12776;SDS011;6452;41.572;23.732;2023-11-19T00:50:25;1.83;;;1.73;;
12776;SDS011;6452;41.572;23.732;2023-11-19T00:52:51;1.70;;;1.60;;
12776;SDS011;6452;41.572;23.732;2023-11-19T00:55:17;2.00;;;1.90;;
12776;SDS011;6452;41.572;23.732;2023-11-19T00:57:43;2.40;;;1.88;;
12776;SDS011;6452;41.572;23.732;2023-11-19T01:00:10;1.40;;;1.40;;
12776;SDS011;6452;41.572;23.732;2023-11-19T01:02:49;1.40;;;1.40;;
12776;SDS011;6452;41.572;23.732;2023-11-19T01:05:16;1.40;;;1.40;;
12776;SDS011;6452;41.572;23.732;2023-11-19T01:07:46;1.65;;;1.60;;
12776;SDS011;6452;41.572;23.732;2023-11-19T01:10:12;1.73;;;1.45;;
12776;SDS011;6452;41.572;23.732;2023-11-19T01:12:41;1.73;;;1.67;;
12776;SDS011;6452;41.572;23.732;2023-11-19T01:15:07;2.20;;;2.00;;
12776;SDS011;6452;41.572;23.732;2023-11-19T01:17:33;5.57;;;2.08;;
12776;SDS011;6452;41.572;23.732;2023-11-19T01:20:00;1.88;;;1.77;;
12776;SDS011;6452;41.572;23.732;2023-11-19T01:22:26;2.38;;;2.28;;
12776;SDS011;6452;41.572;23.732;2023-11-19T01:24:52;4.22;;;3.22;;
12776;SDS011;6452;41.572;23.732;2023-11-19T01:27:19;3.53;;;3.22;;
12776;SDS011;6452;41.572;23.732;2023-11-19T01:29:46;2.70;;;2.50;;
12776;SDS011;6452;41.572;23.732;2023-11-19T01:32:12;2.13;;;1.83;;
12776;SDS011;6452;41.572;23.732;2023-11-19T01:34:38;2.15;;;2.00;;
12776;SDS011;6452;41.572;23.732;2023-11-19T01:37:05;1.83;;;1.73;;
12776;SDS011;6452;41.572;23.732;2023-11-19T01:39:31;2.00;;;1.90;;
12776;SDS011;6452;41.572;23.732;2023-11-19T01:41:57;1.77;;;1.70;;
12776;SDS011;6452;41.572;23.732;2023-11-19T01:44:23;1.95;;;1.83;;
12776;SDS011;6452;41.572;23.732;2023-11-19T01:46:49;1.48;;;1.48;;
12776;SDS011;6452;41.572;23.732;2023-11-19T01:49:15;1.60;;;1.60;;
12776;SDS011;6452;41.572;23.732;2023-11-19T01:51:42;1.80;;;1.65;;
12776;SDS011;6452;41.572;23.732;2023-11-19T01:54:08;1.58;;;1.58;;
12776;SDS011;6452;41.572;23.732;2023-11-19T01:56:37;3.30;;;3.00;;
12776;SDS011;6452;41.572;23.732;2023-11-19T01:59:06;5.82;;;3.60;;
12776;SDS011;6452;41.572;23.732;2023-11-19T02:01:32;3.58;;;2.58;;
12776;SDS011;6452;41.572;23.732;2023-11-19T02:04:01;2.42;;;2.33;;
12776;SDS011;6452;41.572;23.732;2023-11-19T02:06:27;4.03;;;2.17;;
12776;SDS011;6452;41.572;23.732;2023-11-19T02:08:53;1.80;;;1.70;;
12776;SDS011;6452;41.572;23.732;2023-11-19T02:11:19;2.00;;;1.90;;
12776;SDS011;6452;41.572;23.732;2023-11-19T02:13:45;2.17;;;2.08;;
12776;SDS011;6452;41.572;23.732;2023-11-19T02:16:12;2.00;;;1.90;;
12776;SDS011;6452;41.572;23.732;2023-11-19T02:18:39;1.90;;;1.80;;
12776;SDS011;6452;41.572;23.732;2023-11-19T02:21:05;2.30;;;2.20;;
12776;SDS011;6452;41.572;23.732;2023-11-19T02:23:32;2.25;;;1.85;;
12776;SDS011;6452;41.572;23.732;2023-11-19T02:28:43;1.73;;;1.63;;
12776;SDS011;6452;41.572;23.732;2023-11-19T02:31:09;2.95;;;2.67;;
12776;SDS011;6452;41.572;23.732;2023-11-19T02:33:38;4.43;;;3.28;;
12776;SDS011;6452;41.572;23.732;2023-11-19T02:36:05;2.90;;;2.53;;
12776;SDS011;6452;41.572;23.732;2023-11-19T02:38:32;1.75;;;1.60;;
12776;SDS011;6452;41.572;23.732;2023-11-19T02:40:59;1.92;;;1.83;;
12776;SDS011;6452;41.572;23.732;2023-11-19T02:43:27;3.97;;;2.20;;
12776;SDS011;6452;41.572;23.732;2023-11-19T02:45:54;3.90;;;2.40;;
12776;SDS011;6452;41.572;23.732;2023-11-19T02:48:21;1.88;;;1.73;;
12776;SDS011;6452;41.572;23.732;2023-11-19T02:50:47;1.98;;;1.88;;
12776;SDS011;6452;41.572;23.732;2023-11-19T02:53:13;2.60;;;1.60;;
12776;SDS011;6452;41.572;23.732;2023-11-19T02:55:39;2.53;;;1.85;;
12776;SDS011;6452;41.572;23.732;2023-11-19T02:58:06;1.95;;;1.83;;
12776;SDS011;6452;41.572;23.732;2023-11-19T03:00:45;1.92;;;1.80;;
12776;SDS011;6452;41.572;23.732;2023-11-19T03:03:17;2.30;;;2.20;;
12776;SDS011;6452;41.572;23.732;2023-11-19T03:05:48;2.47;;;2.30;;
12776;SDS011;6452;41.572;23.732;2023-11-19T03:08:32;2.80;;;2.20;;
12776;SDS011;6452;41.572;23.732;2023-11-19T03:10:58;1.90;;;1.80;;
12776;SDS011;6452;41.572;23.732;2023-11-19T03:13:24;2.67;;;2.50;;
12776;SDS011;6452;41.572;23.732;2023-11-19T03:15:51;2.20;;;2.10;;
12776;SDS011;6452;41.572;23.732;2023-11-19T03:18:17;2.08;;;1.98;;
12776;SDS011;6452;41.572;23.732;2023-11-19T03:20:43;2.20;;;2.10;;
12776;SDS011;6452;41.572;23.732;2023-11-19T03:23:09;2.60;;;2.40;;
12776;SDS011;6452;41.572;23.732;2023-11-19T03:25:36;2.33;;;2.22;;
12776;SDS011;6452;41.572;23.732;2023-11-19T03:28:03;3.17;;;2.97;;
12776;SDS011;6452;41.572;23.732;2023-11-19T03:30:29;3.35;;;2.95;;
12776;SDS011;6452;41.572;23.732;2023-11-19T03:32:56;3.05;;;2.85;;
12776;SDS011;6452;41.572;23.732;2023-11-19T03:35:22;3.75;;;3.45;;
12776;SDS011;6452;41.572;23.732;2023-11-19T03:37:49;4.78;;;4.07;;
12776;SDS011;6452;41.572;23.732;2023-11-19T03:40:15;5.20;;;4.22;;
12776;SDS011;6452;41.572;23.732;2023-11-19T03:42:41;4.32;;;3.92;;
12776;SDS011;6452;41.572;23.732;2023-11-19T03:45:08;4.13;;;3.15;;
12776;SDS011;6452;41.572;23.732;2023-11-19T03:47:37;4.85;;;3.90;;
12776;SDS011;6452;41.572;23.732;2023-11-19T03:50:04;4.93;;;3.33;;
12776;SDS011;6452;41.572;23.732;2023-11-19T03:52:30;4.90;;;3.58;;
12776;SDS011;6452;41.572;23.732;2023-11-19T03:54:56;3.38;;;3.10;;
12776;SDS011;6452;41.572;23.732;2023-11-19T03:57:23;3.65;;;2.92;;
12776;SDS011;6452;41.572;23.732;2023-11-19T03:59:49;2.90;;;2.70;;
12776;SDS011;6452;41.572;23.732;2023-11-19T04:02:15;3.40;;;2.83;;
12776;SDS011;6452;41.572;23.732;2023-11-19T04:04:41;6.03;;;2.97;;
12776;SDS011;6452;41.572;23.732;2023-11-19T04:07:07;3.30;;;3.10;;
12776;SDS011;6452;41.572;23.732;2023-11-19T04:09:33;3.70;;;3.40;;
12776;SDS011;6452;41.572;23.732;2023-11-19T04:11:59;4.50;;;4.10;;
12776;SDS011;6452;41.572;23.732;2023-11-19T04:14:26;5.30;;;4.72;;
12776;SDS011;6452;41.572;23.732;2023-11-19T04:16:56;8.70;;;7.38;;
12776;SDS011;6452;41.572;23.732;2023-11-19T04:19:22;11.15;;;7.18;;
12776;SDS011;6452;41.572;23.732;2023-11-19T04:21:48;4.32;;;4.03;;
12776;SDS011;6452;41.572;23.732;2023-11-19T04:24:15;5.13;;;4.60;;
12776;SDS011;6452;41.572;23.732;2023-11-19T04:26:42;4.90;;;4.50;;
12776;SDS011;6452;41.572;23.732;2023-11-19T04:29:09;4.68;;;4.20;;
12776;SDS011;6452;41.572;23.732;2023-11-19T04:31:36;8.82;;;6.25;;
12776;SDS011;6452;41.572;23.732;2023-11-19T04:34:03;5.18;;;4.65;;
12776;SDS011;6452;41.572;23.732;2023-11-19T04:36:28;4.80;;;4.30;;
12776;SDS011;6452;41.572;23.732;2023-11-19T04:38:55;11.50;;;6.47;;
12776;SDS011;6452;41.572;23.732;2023-11-19T04:41:21;13.52;;;8.52;;
12776;SDS011;6452;41.572;23.732;2023-11-19T04:43:48;21.25;;;12.45;;
12776;SDS011;6452;41.572;23.732;2023-11-19T04:46:14;22.65;;;16.02;;
12776;SDS011;6452;41.572;23.732;2023-11-19T04:48:41;15.90;;;13.80;;
12776;SDS011;6452;41.572;23.732;2023-11-19T04:51:07;7.90;;;7.07;;
12776;SDS011;6452;41.572;23.732;2023-11-19T04:53:35;7.15;;;6.45;;
12776;SDS011;6452;41.572;23.732;2023-11-19T04:56:06;8.18;;;7.03;;
12776;SDS011;6452;41.572;23.732;2023-11-19T04:58:33;10.40;;;8.68;;
12776;SDS011;6452;41.572;23.732;2023-11-19T05:00:59;17.45;;;10.50;;
12776;SDS011;6452;41.572;23.732;2023-11-19T05:03:25;22.65;;;13.20;;
12776;SDS011;6452;41.572;23.732;2023-11-19T05:05:52;27.73;;;15.63;;
12776;SDS011;6452;41.572;23.732;2023-11-19T05:08:19;27.25;;;14.55;;
12776;SDS011;6452;41.572;23.732;2023-11-19T05:10:45;39.80;;;23.48;;
12776;SDS011;6452;41.572;23.732;2023-11-19T05:13:11;30.63;;;17.27;;
12776;SDS011;6452;41.572;23.732;2023-11-19T05:15:38;22.25;;;12.98;;
12776;SDS011;6452;41.572;23.732;2023-11-19T05:18:04;17.88;;;11.20;;
12776;SDS011;6452;41.572;23.732;2023-11-19T05:20:30;18.08;;;10.63;;
12776;SDS011;6452;41.572;23.732;2023-11-19T05:22:56;13.80;;;9.85;;
12776;SDS011;6452;41.572;23.732;2023-11-19T05:25:26;15.18;;;10.82;;
12776;SDS011;6452;41.572;23.732;2023-11-19T05:27:52;11.90;;;9.27;;
12776;SDS011;6452;41.572;23.732;2023-11-19T05:30:18;8.30;;;6.63;;
12776;SDS011;6452;41.572;23.732;2023-11-19T05:32:44;10.25;;;8.52;;
12776;SDS011;6452;41.572;23.732;2023-11-19T05:35:10;15.07;;;9.35;;
12776;SDS011;6452;41.572;23.732;2023-11-19T05:37:36;12.75;;;9.80;;
12776;SDS011;6452;41.572;23.732;2023-11-19T05:40:03;16.75;;;11.02;;
12776;SDS011;6452;41.572;23.732;2023-11-19T05:42:34;18.90;;;12.02;;
12776;SDS011;6452;41.572;23.732;2023-11-19T05:45:00;23.42;;;14.45;;
12776;SDS011;6452;41.572;23.732;2023-11-19T05:47:26;27.88;;;15.93;;
12776;SDS011;6452;41.572;23.732;2023-11-19T05:49:53;30.58;;;15.52;;
12776;SDS011;6452;41.572;23.732;2023-11-19T05:52:19;29.15;;;18.10;;
12776;SDS011;6452;41.572;23.732;2023-11-19T05:54:47;36.38;;;20.77;;
12776;SDS011;6452;41.572;23.732;2023-11-19T05:57:17;36.38;;;19.10;;
12776;SDS011;6452;41.572;23.732;2023-11-19T06:00:03;19.83;;;13.90;;
12776;SDS011;6452;41.572;23.732;2023-11-19T06:02:49;21.52;;;12.43;;
12776;SDS011;6452;41.572;23.732;2023-11-19T06:05:16;15.05;;;10.23;;
12776;SDS011;6452;41.572;23.732;2023-11-19T06:07:42;17.80;;;11.93;;
12776;SDS011;6452;41.572;23.732;2023-11-19T06:10:08;11.98;;;9.70;;
12776;SDS011;6452;41.572;23.732;2023-11-19T06:12:36;12.05;;;9.02;;
12776;SDS011;6452;41.572;23.732;2023-11-19T06:15:04;13.20;;;10.07;;
12776;SDS011;6452;41.572;23.732;2023-11-19T06:17:33;10.93;;;8.30;;
12776;SDS011;6452;41.572;23.732;2023-11-19T06:19:59;6.97;;;6.32;;
12776;SDS011;6452;41.572;23.732;2023-11-19T06:22:25;6.18;;;5.68;;
12776;SDS011;6452;41.572;23.732;2023-11-19T06:24:52;5.88;;;5.30;;
12776;SDS011;6452;41.572;23.732;2023-11-19T06:27:18;5.85;;;5.25;;
12776;SDS011;6452;41.572;23.732;2023-11-19T06:29:45;9.18;;;6.65;;
12776;SDS011;6452;41.572;23.732;2023-11-19T06:32:11;5.07;;;4.32;;
12776;SDS011;6452;41.572;23.732;2023-11-19T06:34:37;3.58;;;3.28;;
12776;SDS011;6452;41.572;23.732;2023-11-19T06:37:04;5.13;;;4.05;;
12776;SDS011;6452;41.572;23.732;2023-11-19T06:39:30;3.85;;;3.55;;
12776;SDS011;6452;41.572;23.732;2023-11-19T06:41:55;3.20;;;3.00;;
12776;SDS011;6452;41.572;23.732;2023-11-19T06:44:22;2.72;;;2.53;;
12776;SDS011;6452;41.572;23.732;2023-11-19T06:46:48;4.50;;;4.15;;
12776;SDS011;6452;41.572;23.732;2023-11-19T06:49:14;3.00;;;2.80;;
12776;SDS011;6452;41.572;23.732;2023-11-19T06:51:43;2.90;;;2.70;;
12776;SDS011;6452;41.572;23.732;2023-11-19T06:54:09;2.65;;;2.45;;
12776;SDS011;6452;41.572;23.732;2023-11-19T06:56:36;2.30;;;2.20;;
12776;SDS011;6452;41.572;23.732;2023-11-19T06:59:02;3.08;;;2.88;;
12776;SDS011;6452;41.572;23.732;2023-11-19T07:01:33;2.63;;;2.42;;
12776;SDS011;6452;41.572;23.732;2023-11-19T07:04:00;3.17;;;2.90;;
12776;SDS011;6452;41.572;23.732;2023-11-19T07:06:33;2.20;;;2.10;;
12776;SDS011;6452;41.572;23.732;2023-11-19T07:09:00;2.33;;;2.20;;
12776;SDS011;6452;41.572;23.732;2023-11-19T07:11:35;2.20;;;2.10;;
12776;SDS011;6452;41.572;23.732;2023-11-19T07:14:01;3.03;;;2.83;;
12776;SDS011;6452;41.572;23.732;2023-11-19T07:16:27;3.63;;;2.22;;
12776;SDS011;6452;41.572;23.732;2023-11-19T07:18:54;1.90;;;1.80;;
12776;SDS011;6452;41.572;23.732;2023-11-19T07:21:20;3.88;;;2.40;;
12776;SDS011;6452;41.572;23.732;2023-11-19T07:23:47;2.83;;;2.63;;
12776;SDS011;6452;41.572;23.732;2023-11-19T07:26:14;2.58;;;2.08;;
12776;SDS011;6452;41.572;23.732;2023-11-19T07:28:40;2.10;;;2.00;;
12776;SDS011;6452;41.572;23.732;2023-11-19T07:31:06;2.30;;;2.20;;
12776;SDS011;6452;41.572;23.732;2023-11-19T07:33:52;2.35;;;2.25;;
12776;SDS011;6452;41.572;23.732;2023-11-19T07:36:18;2.20;;;2.10;;
12776;SDS011;6452;41.572;23.732;2023-11-19T07:38:45;2.22;;;2.03;;
12776;SDS011;6452;41.572;23.732;2023-11-19T07:41:11;1.70;;;1.60;;
12776;SDS011;6452;41.572;23.732;2023-11-19T07:43:43;1.58;;;1.48;;
12776;SDS011;6452;41.572;23.732;2023-11-19T07:46:10;1.90;;;1.80;;
12776;SDS011;6452;41.572;23.732;2023-11-19T07:48:36;1.38;;;1.38;;
12776;SDS011;6452;41.572;23.732;2023-11-19T07:51:02;1.63;;;1.60;;
12776;SDS011;6452;41.572;23.732;2023-11-19T07:53:28;1.40;;;1.35;;
12776;SDS011;6452;41.572;23.732;2023-11-19T07:55:55;1.50;;;1.40;;
12776;SDS011;6452;41.572;23.732;2023-11-19T07:58:21;1.85;;;1.85;;
12776;SDS011;6452;41.572;23.732;2023-11-19T08:00:46;1.58;;;1.48;;
12776;SDS011;6452;41.572;23.732;2023-11-19T08:03:13;1.40;;;1.30;;
12776;SDS011;6452;41.572;23.732;2023-11-19T08:05:39;3.38;;;3.08;;
12776;SDS011;6452;41.572;23.732;2023-11-19T08:08:05;3.13;;;2.88;;
12776;SDS011;6452;41.572;23.732;2023-11-19T08:10:31;2.50;;;2.35;;
12776;SDS011;6452;41.572;23.732;2023-11-19T08:12:58;2.60;;;2.45;;
12776;SDS011;6452;41.572;23.732;2023-11-19T08:15:25;1.90;;;1.80;;
12776;SDS011;6452;41.572;23.732;2023-11-19T08:17:51;2.25;;;2.15;;
12776;SDS011;6452;41.572;23.732;2023-11-19T08:20:17;1.70;;;1.60;;
12776;SDS011;6452;41.572;23.732;2023-11-19T08:22:44;2.58;;;1.65;;
12776;SDS011;6452;41.572;23.732;2023-11-19T08:25:10;1.40;;;1.40;;
12776;SDS011;6452;41.572;23.732;2023-11-19T08:27:36;1.70;;;1.60;;
12776;SDS011;6452;41.572;23.732;2023-11-19T08:30:02;1.45;;;1.45;;
12776;SDS011;6452;41.572;23.732;2023-11-19T08:32:29;1.58;;;1.58;;
12776;SDS011;6452;41.572;23.732;2023-11-19T08:34:56;1.40;;;1.40;;
12776;SDS011;6452;41.572;23.732;2023-11-19T08:37:22;1.58;;;1.58;;
12776;SDS011;6452;41.572;23.732;2023-11-19T08:39:49;1.83;;;1.40;;
12776;SDS011;6452;41.572;23.732;2023-11-19T08:42:15;1.60;;;1.60;;
12776;SDS011;6452;41.572;23.732;2023-11-19T08:44:41;1.50;;;1.50;;
12776;SDS011;6452;41.572;23.732;2023-11-19T08:47:13;1.20;;;1.15;;
12776;SDS011;6452;41.572;23.732;2023-11-19T08:49:39;1.38;;;1.38;;
12776;SDS011;6452;41.572;23.732;2023-11-19T08:52:05;1.55;;;1.55;;
12776;SDS011;6452;41.572;23.732;2023-11-19T08:54:36;1.70;;;1.60;;
12776;SDS011;6452;41.572;23.732;2023-11-19T08:57:02;1.20;;;1.20;;
12776;SDS011;6452;41.572;23.732;2023-11-19T08:59:29;1.20;;;1.20;;
12776;SDS011;6452;41.572;23.732;2023-11-19T09:01:55;1.33;;;1.33;;
12776;SDS011;6452;41.572;23.732;2023-11-19T09:04:21;1.70;;;1.60;;
12776;SDS011;6452;41.572;23.732;2023-11-19T09:06:48;1.85;;;1.75;;
12776;SDS011;6452;41.572;23.732;2023-11-19T09:09:14;4.50;;;4.20;;
12776;SDS011;6452;41.572;23.732;2023-11-19T09:11:40;1.88;;;1.80;;
12776;SDS011;6452;41.572;23.732;2023-11-19T09:14:06;3.25;;;3.05;;
12776;SDS011;6452;41.572;23.732;2023-11-19T09:16:32;3.45;;;2.78;;
12776;SDS011;6452;41.572;23.732;2023-11-19T09:18:58;1.75;;;1.65;;
12776;SDS011;6452;41.572;23.732;2023-11-19T09:21:26;1.60;;;1.60;;
12776;SDS011;6452;41.572;23.732;2023-11-19T09:23:55;1.65;;;1.60;;
12776;SDS011;6452;41.572;23.732;2023-11-19T09:26:21;1.40;;;1.40;;
12776;SDS011;6452;41.572;23.732;2023-11-19T09:28:47;1.75;;;1.50;;
12776;SDS011;6452;41.572;23.732;2023-11-19T09:31:16;1.60;;;1.60;;
12776;SDS011;6452;41.572;23.732;2023-11-19T09:33:43;2.45;;;2.30;;
12776;SDS011;6452;41.572;23.732;2023-11-19T09:36:09;3.53;;;3.33;;
12776;SDS011;6452;41.572;23.732;2023-11-19T09:38:37;3.42;;;3.22;;
12776;SDS011;6452;41.572;23.732;2023-11-19T09:41:04;2.88;;;2.67;;
12776;SDS011;6452;41.572;23.732;2023-11-19T09:43:38;2.25;;;2.10;;
12776;SDS011;6452;41.572;23.732;2023-11-19T09:46:09;6.88;;;5.28;;
12776;SDS011;6452;41.572;23.732;2023-11-19T09:48:37;7.85;;;5.97;;
12776;SDS011;6452;41.572;23.732;2023-11-19T09:51:07;2.70;;;2.55;;
12776;SDS011;6452;41.572;23.732;2023-11-19T09:53:33;2.10;;;2.00;;
12776;SDS011;6452;41.572;23.732;2023-11-19T09:56:00;3.85;;;3.47;;
12776;SDS011;6452;41.572;23.732;2023-11-19T09:58:26;1.88;;;1.80;;
12776;SDS011;6452;41.572;23.732;2023-11-19T10:00:52;2.60;;;2.50;;
12776;SDS011;6452;41.572;23.732;2023-11-19T10:03:19;2.33;;;2.22;;
12776;SDS011;6452;41.572;23.732;2023-11-19T10:05:46;1.55;;;1.50;;
12776;SDS011;6452;41.572;23.732;2023-11-19T10:08:12;2.55;;;2.13;;
12776;SDS011;6452;41.572;23.732;2023-11-19T10:10:42;2.20;;;2.10;;
12776;SDS011;6452;41.572;23.732;2023-11-19T10:13:08;2.35;;;2.15;;
12776;SDS011;6452;41.572;23.732;2023-11-19T10:15:38;2.03;;;1.90;;
12776;SDS011;6452;41.572;23.732;2023-11-19T10:18:04;2.40;;;2.30;;
12776;SDS011;6452;41.572;23.732;2023-11-19T10:20:37;4.00;;;3.60;;
12776;SDS011;6452;41.572;23.732;2023-11-19T10:23:03;5.55;;;4.20;;
12776;SDS011;6452;41.572;23.732;2023-11-19T10:25:29;7.03;;;5.10;;
12776;SDS011;6452;41.572;23.732;2023-11-19T10:27:56;5.30;;;4.65;;
12776;SDS011;6452;41.572;23.732;2023-11-19T10:30:22;1.55;;;1.55;;
12776;SDS011;6452;41.572;23.732;2023-11-19T10:33:03;1.40;;;1.38;;
12776;SDS011;6452;41.572;23.732;2023-11-19T10:35:50;1.60;;;1.60;;
12776;SDS011;6452;41.572;23.732;2023-11-19T10:38:37;2.70;;;2.60;;
12776;SDS011;6452;41.572;23.732;2023-11-19T10:41:03;4.25;;;3.65;;
12776;SDS011;6452;41.572;23.732;2023-11-19T10:43:30;1.85;;;1.75;;
12776;SDS011;6452;41.572;23.732;2023-11-19T10:46:09;2.08;;;1.95;;
12776;SDS011;6452;41.572;23.732;2023-11-19T10:48:35;1.40;;;1.40;;
12776;SDS011;6452;41.572;23.732;2023-11-19T10:51:01;1.40;;;1.40;;
12776;SDS011;6452;41.572;23.732;2023-11-19T10:53:30;2.78;;;2.55;;
12776;SDS011;6452;41.572;23.732;2023-11-19T10:55:58;3.35;;;2.40;;
12776;SDS011;6452;41.572;23.732;2023-11-19T10:58:25;3.28;;;2.95;;
12776;SDS011;6452;41.572;23.732;2023-11-19T11:00:56;2.08;;;1.98;;
12776;SDS011;6452;41.572;23.732;2023-11-19T11:03:26;2.25;;;2.15;;
12776;SDS011;6452;41.572;23.732;2023-11-19T11:06:08;2.60;;;2.40;;
12776;SDS011;6452;41.572;23.732;2023-11-19T11:08:36;2.45;;;2.28;;
12776;SDS011;6452;41.572;23.732;2023-11-19T11:11:02;2.35;;;2.25;;
12776;SDS011;6452;41.572;23.732;2023-11-19T11:13:30;2.83;;;2.63;;
12776;SDS011;6452;41.572;23.732;2023-11-19T11:15:57;3.85;;;2.22;;
12776;SDS011;6452;41.572;23.732;2023-11-19T11:18:23;2.42;;;2.33;;
12776;SDS011;6452;41.572;23.732;2023-11-19T11:21:09;3.63;;;2.63;;
12776;SDS011;6452;41.572;23.732;2023-11-19T11:31:26;2.72;;;2.60;;
12776;SDS011;6452;41.572;23.732;2023-11-19T11:36:22;2.53;;;2.42;;
12776;SDS011;6452;41.572;23.732;2023-11-19T11:38:49;2.20;;;2.10;;
12776;SDS011;6452;41.572;23.732;2023-11-19T11:41:19;2.10;;;2.00;;
12776;SDS011;6452;41.572;23.732;2023-11-19T11:43:47;2.17;;;2.08;;
12776;SDS011;6452;41.572;23.732;2023-11-19T11:48:58;2.20;;;2.10;;
12776;SDS011;6452;41.572;23.732;2023-11-19T11:54:31;1.77;;;1.75;;
12776;SDS011;6452;41.572;23.732;2023-11-19T12:00:11;2.78;;;2.67;;
12776;SDS011;6452;41.572;23.732;2023-11-19T12:02:19;3.38;;;3.08;;
12776;SDS011;6452;41.572;23.732;2023-11-19T12:04:47;2.97;;;2.70;;
12776;SDS011;6452;41.572;23.732;2023-11-19T12:07:15;1.77;;;1.77;;
12776;SDS011;6452;41.572;23.732;2023-11-19T12:09:48;2.70;;;2.50;;
12776;SDS011;6452;41.572;23.732;2023-11-19T12:17:43;2.17;;;2.08;;
12776;SDS011;6452;41.572;23.732;2023-11-19T12:20:32;5.40;;;5.10;;
12776;SDS011;6452;41.572;23.732;2023-11-19T12:23:04;2.28;;;2.17;;
12776;SDS011;6452;41.572;23.732;2023-11-19T12:25:34;2.10;;;2.00;;
12776;SDS011;6452;41.572;23.732;2023-11-19T12:28:01;2.30;;;2.20;;
12776;SDS011;6452;41.572;23.732;2023-11-19T12:30:30;2.90;;;2.38;;
12776;SDS011;6452;41.572;23.732;2023-11-19T12:32:57;2.25;;;2.15;;
12776;SDS011;6452;41.572;23.732;2023-11-19T12:35:24;2.28;;;2.17;;
12776;SDS011;6452;41.572;23.732;2023-11-19T12:37:52;2.67;;;2.47;;
12776;SDS011;6452;41.572;23.732;2023-11-19T12:40:20;2.25;;;2.15;;
12776;SDS011;6452;41.572;23.732;2023-11-19T12:42:52;2.10;;;1.95;;
12776;SDS011;6452;41.572;23.732;2023-11-19T12:45:19;2.15;;;2.05;;
12776;SDS011;6452;41.572;23.732;2023-11-19T12:47:46;2.53;;;2.42;;
12776;SDS011;6452;41.572;23.732;2023-11-19T12:50:15;2.40;;;2.30;;
12776;SDS011;6452;41.572;23.732;2023-11-19T12:52:55;3.45;;;3.25;;
12776;SDS011;6452;41.572;23.732;2023-11-19T12:57:52;2.50;;;2.40;;
12776;SDS011;6452;41.572;23.732;2023-11-19T13:00:21;2.05;;;2.03;;
12776;SDS011;6452;41.572;23.732;2023-11-19T13:02:50;2.20;;;2.15;;
12776;SDS011;6452;41.572;23.732;2023-11-19T13:10:51;3.35;;;3.15;;
12776;SDS011;6452;41.572;23.732;2023-11-19T13:13:21;1.60;;;1.50;;
12776;SDS011;6452;41.572;23.732;2023-11-19T13:15:48;2.78;;;2.67;;
12776;SDS011;6452;41.572;23.732;2023-11-19T13:18:16;2.60;;;2.50;;
12776;SDS011;6452;41.572;23.732;2023-11-19T13:20:43;2.40;;;2.30;;
12776;SDS011;6452;41.572;23.732;2023-11-19T13:23:10;2.85;;;2.75;;
12776;SDS011;6452;41.572;23.732;2023-11-19T13:25:37;1.20;;;1.20;;
12776;SDS011;6452;41.572;23.732;2023-11-19T13:28:04;2.10;;;2.00;;
12776;SDS011;6452;41.572;23.732;2023-11-19T13:30:31;2.33;;;2.20;;
12776;SDS011;6452;41.572;23.732;2023-11-19T13:32:58;3.90;;;3.60;;
12776;SDS011;6452;41.572;23.732;2023-11-19T13:35:27;5.25;;;4.75;;
12776;SDS011;6452;41.572;23.732;2023-11-19T13:37:55;5.38;;;4.97;;
12776;SDS011;6452;41.572;23.732;2023-11-19T13:40:22;4.10;;;3.80;;
12776;SDS011;6452;41.572;23.732;2023-11-19T13:42:50;5.03;;;4.63;;
12776;SDS011;6452;41.572;23.732;2023-11-19T13:45:17;14.43;;;12.23;;
12776;SDS011;6452;41.572;23.732;2023-11-19T13:47:46;6.72;;;6.13;;
12776;SDS011;6452;41.572;23.732;2023-11-19T13:50:14;8.68;;;7.78;;
12776;SDS011;6452;41.572;23.732;2023-11-19T13:52:45;12.07;;;10.30;;
12776;SDS011;6452;41.572;23.732;2023-11-19T13:55:13;6.75;;;6.22;;
12776;SDS011;6452;41.572;23.732;2023-11-19T13:57:40;7.40;;;6.70;;
12776;SDS011;6452;41.572;23.732;2023-11-19T14:00:10;8.40;;;7.00;;
12776;SDS011;6452;41.572;23.732;2023-11-19T14:02:44;8.88;;;7.97;;
12776;SDS011;6452;41.572;23.732;2023-11-19T14:05:13;13.20;;;11.90;;
12776;SDS011;6452;41.572;23.732;2023-11-19T14:07:45;19.75;;;17.65;;
12776;SDS011;6452;41.572;23.732;2023-11-19T14:10:15;19.40;;;16.17;;
12776;SDS011;6452;41.572;23.732;2023-11-19T14:12:42;16.20;;;14.50;;
12776;SDS011;6452;41.572;23.732;2023-11-19T14:15:10;20.27;;;17.23;;
12776;SDS011;6452;41.572;23.732;2023-11-19T14:17:42;26.10;;;22.23;;
12776;SDS011;6452;41.572;23.732;2023-11-19T14:20:09;24.75;;;21.75;;
12776;SDS011;6452;41.572;23.732;2023-11-19T14:22:44;33.35;;;24.58;;
12776;SDS011;6452;41.572;23.732;2023-11-19T14:25:15;26.23;;;19.80;;
12776;SDS011;6452;41.572;23.732;2023-11-19T14:27:43;25.63;;;18.33;;
12776;SDS011;6452;41.572;23.732;2023-11-19T14:30:10;24.02;;;18.92;;
12776;SDS011;6452;41.572;23.732;2023-11-19T14:32:39;29.27;;;24.55;;
12776;SDS011;6452;41.572;23.732;2023-11-19T14:35:08;25.33;;;18.88;;
12776;SDS011;6452;41.572;23.732;2023-11-19T14:37:35;23.95;;;17.95;;
12776;SDS011;6452;41.572;23.732;2023-11-19T14:40:01;21.60;;;16.17;;
12776;SDS011;6452;41.572;23.732;2023-11-19T14:42:32;22.00;;;16.60;;
12776;SDS011;6452;41.572;23.732;2023-11-19T14:44:58;20.45;;;16.25;;
12776;SDS011;6452;41.572;23.732;2023-11-19T14:47:28;24.98;;;19.27;;
12776;SDS011;6452;41.572;23.732;2023-11-19T14:49:56;26.30;;;20.17;;
12776;SDS011;6452;41.572;23.732;2023-11-19T14:52:23;26.48;;;18.38;;
12776;SDS011;6452;41.572;23.732;2023-11-19T14:54:49;25.27;;;18.77;;
12776;SDS011;6452;41.572;23.732;2023-11-19T14:57:19;27.70;;;19.92;;
12776;SDS011;6452;41.572;23.732;2023-11-19T14:59:46;27.98;;;22.17;;
12776;SDS011;6452;41.572;23.732;2023-11-19T15:02:13;32.50;;;21.67;;
12776;SDS011;6452;41.572;23.732;2023-11-19T15:04:40;37.20;;;24.55;;
12776;SDS011;6452;41.572;23.732;2023-11-19T15:07:09;40.75;;;28.98;;
12776;SDS011;6452;41.572;23.732;2023-11-19T15:09:36;38.33;;;25.92;;
12776;SDS011;6452;41.572;23.732;2023-11-19T15:12:04;14.00;;;10.50;;
12776;SDS011;6452;41.572;23.732;2023-11-19T15:14:31;13.15;;;9.15;;
12776;SDS011;6452;41.572;23.732;2023-11-19T15:16:59;10.82;;;8.63;;
12776;SDS011;6452;41.572;23.732;2023-11-19T15:19:25;14.85;;;11.25;;
12776;SDS011;6452;41.572;23.732;2023-11-19T15:21:52;9.68;;;8.00;;